Terminal Aerodrome Forecast
Issued by NWS

Home | Current Version | Previous Version | Text Only | Print | Product List | Glossary On
Versions: 1 2 3 4 5 6 7 8 9 10 11 12 13 14 15 16 17 18 19 20 21 22
000
FTUS42 KTAE 031700
TAFABY
TAF
KABY 031740Z 0318/0418 18006KT P6SM BKN024
      TEMPO 0318/0320 BKN024
     FM032100 19009KT P6SM BKN050
     FM040300 18005KT 2SM BR OVC015
     FM040600 17004KT 1/2SM FG OVC001=

USA.gov is the U.S. government's official web portal to all federal, state and local government web resources and services.